sensor_id;sensor_type;location;lat;lon;timestamp;temperature;humidity
68943;DHT22;60852;52.190;4.422;2023-08-17T00:01:23;18.16;80.75
68943;DHT22;60852;52.190;4.422;2023-08-17T00:03:49;18.20;80.65
68943;DHT22;60852;52.190;4.422;2023-08-17T00:06:14;18.21;80.47
68943;DHT22;60852;52.190;4.422;2023-08-17T00:08:41;18.18;80.22
68943;DHT22;60852;52.190;4.422;2023-08-17T00:11:07;18.10;80.19
68943;DHT22;60852;52.190;4.422;2023-08-17T00:13:32;18.07;79.99
68943;DHT22;60852;52.190;4.422;2023-08-17T00:15:58;18.07;79.76
68943;DHT22;60852;52.190;4.422;2023-08-17T00:18:23;18.06;79.53
68943;DHT22;60852;52.190;4.422;2023-08-17T00:20:49;18.07;79.58
68943;DHT22;60852;52.190;4.422;2023-08-17T00:23:14;18.09;79.23
68943;DHT22;60852;52.190;4.422;2023-08-17T00:25:40;18.01;79.15
68943;DHT22;60852;52.190;4.422;2023-08-17T00:28:05;18.01;79.00
68943;DHT22;60852;52.190;4.422;2023-08-17T00:30:31;18.04;78.79
68943;DHT22;60852;52.190;4.422;2023-08-17T00:32:56;18.07;78.68
68943;DHT22;60852;52.190;4.422;2023-08-17T00:35:22;18.07;78.42
68943;DHT22;60852;52.190;4.422;2023-08-17T00:37:47;18.07;78.45
68943;DHT22;60852;52.190;4.422;2023-08-17T00:40:13;18.01;78.42
68943;DHT22;60852;52.190;4.422;2023-08-17T00:42:38;18.00;78.67
68943;DHT22;60852;52.190;4.422;2023-08-17T00:45:04;18.04;78.54
68943;DHT22;60852;52.190;4.422;2023-08-17T00:47:30;18.03;78.45
68943;DHT22;60852;52.190;4.422;2023-08-17T00:49:56;17.99;78.50
68943;DHT22;60852;52.190;4.422;2023-08-17T00:52:23;17.93;78.75
68943;DHT22;60852;52.190;4.422;2023-08-17T00:54:49;17.96;78.88
68943;DHT22;60852;52.190;4.422;2023-08-17T00:57:14;17.93;79.06
68943;DHT22;60852;52.190;4.422;2023-08-17T00:59:40;17.82;79.57
68943;DHT22;60852;52.190;4.422;2023-08-17T01:02:07;17.80;79.99
68943;DHT22;60852;52.190;4.422;2023-08-17T01:04:33;17.78;79.97
68943;DHT22;60852;52.190;4.422;2023-08-17T01:06:59;17.72;80.32
68943;DHT22;60852;52.190;4.422;2023-08-17T01:09:24;17.69;80.42
68943;DHT22;60852;52.190;4.422;2023-08-17T01:12:03;17.62;80.68
68943;DHT22;60852;52.190;4.422;2023-08-17T01:14:40;17.63;80.74
68943;DHT22;60852;52.190;4.422;2023-08-17T01:17:19;17.58;80.91
68943;DHT22;60852;52.190;4.422;2023-08-17T01:19:49;17.56;80.84
68943;DHT22;60852;52.190;4.422;2023-08-17T01:22:17;17.55;80.88
68943;DHT22;60852;52.190;4.422;2023-08-17T01:24:45;17.55;80.98
68943;DHT22;60852;52.190;4.422;2023-08-17T01:27:11;17.55;80.95
68943;DHT22;60852;52.190;4.422;2023-08-17T01:29:36;17.53;80.96
68943;DHT22;60852;52.190;4.422;2023-08-17T01:32:30;17.52;81.06
68943;DHT22;60852;52.190;4.422;2023-08-17T01:35:04;17.52;80.87
68943;DHT22;60852;52.190;4.422;2023-08-17T01:37:34;17.49;80.85
68943;DHT22;60852;52.190;4.422;2023-08-17T01:40:01;17.51;80.92
68943;DHT22;60852;52.190;4.422;2023-08-17T01:42:29;17.51;80.94
68943;DHT22;60852;52.190;4.422;2023-08-17T01:44:55;17.49;80.85
68943;DHT22;60852;52.190;4.422;2023-08-17T01:47:21;17.52;80.74
68943;DHT22;60852;52.190;4.422;2023-08-17T01:49:47;17.48;80.74
68943;DHT22;60852;52.190;4.422;2023-08-17T01:52:13;17.45;80.89
68943;DHT22;60852;52.190;4.422;2023-08-17T01:54:38;17.36;81.15
68943;DHT22;60852;52.190;4.422;2023-08-17T01:57:04;17.31;81.52
68943;DHT22;60852;52.190;4.422;2023-08-17T01:59:29;17.34;81.51
68943;DHT22;60852;52.190;4.422;2023-08-17T02:01:55;17.27;81.55
68943;DHT22;60852;52.190;4.422;2023-08-17T02:04:20;17.21;81.81
68943;DHT22;60852;52.190;4.422;2023-08-17T02:06:45;17.18;82.03
68943;DHT22;60852;52.190;4.422;2023-08-17T02:09:11;17.14;82.22
68943;DHT22;60852;52.190;4.422;2023-08-17T02:11:36;17.14;82.32
68943;DHT22;60852;52.190;4.422;2023-08-17T02:14:02;17.14;82.34
68943;DHT22;60852;52.190;4.422;2023-08-17T02:16:27;17.11;82.30
68943;DHT22;60852;52.190;4.422;2023-08-17T02:18:53;17.08;82.33
68943;DHT22;60852;52.190;4.422;2023-08-17T02:21:18;17.04;82.64
68943;DHT22;60852;52.190;4.422;2023-08-17T02:23:44;17.06;82.58
68943;DHT22;60852;52.190;4.422;2023-08-17T02:26:10;17.03;82.46
68943;DHT22;60852;52.190;4.422;2023-08-17T02:28:35;17.08;82.30
68943;DHT22;60852;52.190;4.422;2023-08-17T02:31:01;17.04;82.38
68943;DHT22;60852;52.190;4.422;2023-08-17T02:33:27;17.03;82.41
68943;DHT22;60852;52.190;4.422;2023-08-17T02:35:52;17.00;82.47
68943;DHT22;60852;52.190;4.422;2023-08-17T02:38:18;17.03;82.45
68943;DHT22;60852;52.190;4.422;2023-08-17T02:40:43;17.01;82.41
68943;DHT22;60852;52.190;4.422;2023-08-17T02:43:09;17.04;82.58
68943;DHT22;60852;52.190;4.422;2023-08-17T02:45:35;17.06;82.39
68943;DHT22;60852;52.190;4.422;2023-08-17T02:48:00;17.11;82.31
68943;DHT22;60852;52.190;4.422;2023-08-17T02:50:26;17.12;82.15
68943;DHT22;60852;52.190;4.422;2023-08-17T02:52:51;17.15;82.13
68943;DHT22;60852;52.190;4.422;2023-08-17T02:55:17;17.12;82.15
68943;DHT22;60852;52.190;4.422;2023-08-17T02:57:43;17.15;82.21
68943;DHT22;60852;52.190;4.422;2023-08-17T03:00:09;17.17;82.08
68943;DHT22;60852;52.190;4.422;2023-08-17T03:02:34;17.12;82.12
68943;DHT22;60852;52.190;4.422;2023-08-17T03:05:00;17.11;82.19
68943;DHT22;60852;52.190;4.422;2023-08-17T03:07:25;17.10;82.32
68943;DHT22;60852;52.190;4.422;2023-08-17T03:09:51;17.08;82.30
68943;DHT22;60852;52.190;4.422;2023-08-17T03:12:16;17.10;82.30
68943;DHT22;60852;52.190;4.422;2023-08-17T03:14:42;17.07;82.26
68943;DHT22;60852;52.190;4.422;2023-08-17T03:17:07;17.07;82.30
68943;DHT22;60852;52.190;4.422;2023-08-17T03:19:33;17.01;82.39
68943;DHT22;60852;52.190;4.422;2023-08-17T03:21:58;16.95;82.42
68943;DHT22;60852;52.190;4.422;2023-08-17T03:24:24;16.91;82.57
68943;DHT22;60852;52.190;4.422;2023-08-17T03:26:49;16.84;82.75
68943;DHT22;60852;52.190;4.422;2023-08-17T03:29:14;16.81;82.97
68943;DHT22;60852;52.190;4.422;2023-08-17T03:31:40;16.74;83.26
68943;DHT22;60852;52.190;4.422;2023-08-17T03:34:05;16.72;83.42
68943;DHT22;60852;52.190;4.422;2023-08-17T03:36:31;16.70;83.53
68943;DHT22;60852;52.190;4.422;2023-08-17T03:38:56;16.72;83.50
68943;DHT22;60852;52.190;4.422;2023-08-17T03:41:22;16.70;83.42
68943;DHT22;60852;52.190;4.422;2023-08-17T03:43:50;16.72;83.60
68943;DHT22;60852;52.190;4.422;2023-08-17T03:46:16;16.70;83.51
68943;DHT22;60852;52.190;4.422;2023-08-17T03:48:41;16.67;83.54
68943;DHT22;60852;52.190;4.422;2023-08-17T03:51:07;16.66;83.55
68943;DHT22;60852;52.190;4.422;2023-08-17T03:53:32;16.66;83.63
68943;DHT22;60852;52.190;4.422;2023-08-17T03:55:58;16.62;83.65
68943;DHT22;60852;52.190;4.422;2023-08-17T03:58:23;16.63;83.63
68943;DHT22;60852;52.190;4.422;2023-08-17T04:00:53;16.63;83.55
68943;DHT22;60852;52.190;4.422;2023-08-17T04:03:19;16.59;83.70
68943;DHT22;60852;52.190;4.422;2023-08-17T04:05:45;16.62;83.64
68943;DHT22;60852;52.190;4.422;2023-08-17T04:08:10;16.57;83.64
68943;DHT22;60852;52.190;4.422;2023-08-17T04:10:36;16.55;83.66
68943;DHT22;60852;52.190;4.422;2023-08-17T04:13:02;16.51;83.84
68943;DHT22;60852;52.190;4.422;2023-08-17T04:15:28;16.52;83.86
68943;DHT22;60852;52.190;4.422;2023-08-17T04:17:53;16.52;83.77
68943;DHT22;60852;52.190;4.422;2023-08-17T04:20:19;16.51;83.79
68943;DHT22;60852;52.190;4.422;2023-08-17T04:22:45;16.51;83.70
68943;DHT22;60852;52.190;4.422;2023-08-17T04:25:10;16.49;83.78
68943;DHT22;60852;52.190;4.422;2023-08-17T04:27:36;16.49;83.99
68943;DHT22;60852;52.190;4.422;2023-08-17T04:30:01;16.46;83.89
68943;DHT22;60852;52.190;4.422;2023-08-17T04:32:27;16.48;83.92
68943;DHT22;60852;52.190;4.422;2023-08-17T04:34:52;16.48;83.91
68943;DHT22;60852;52.190;4.422;2023-08-17T04:37:18;16.48;83.85
68943;DHT22;60852;52.190;4.422;2023-08-17T04:39:43;16.48;83.95
68943;DHT22;60852;52.190;4.422;2023-08-17T04:42:10;16.48;83.85
68943;DHT22;60852;52.190;4.422;2023-08-17T04:44:35;16.48;83.87
68943;DHT22;60852;52.190;4.422;2023-08-17T04:47:01;16.48;83.88
68943;DHT22;60852;52.190;4.422;2023-08-17T04:49:27;16.51;83.88
68943;DHT22;60852;52.190;4.422;2023-08-17T04:51:53;16.55;83.71
68943;DHT22;60852;52.190;4.422;2023-08-17T04:54:19;16.56;83.71
68943;DHT22;60852;52.190;4.422;2023-08-17T04:56:44;16.55;83.53
68943;DHT22;60852;52.190;4.422;2023-08-17T04:59:10;16.52;83.62
68943;DHT22;60852;52.190;4.422;2023-08-17T05:01:35;16.51;83.65
68943;DHT22;60852;52.190;4.422;2023-08-17T05:04:01;16.49;83.72
68943;DHT22;60852;52.190;4.422;2023-08-17T05:06:30;16.51;83.72
68943;DHT22;60852;52.190;4.422;2023-08-17T05:08:56;16.59;83.54
68943;DHT22;60852;52.190;4.422;2023-08-17T05:11:22;16.70;83.18
68943;DHT22;60852;52.190;4.422;2023-08-17T05:13:47;16.67;83.08
68943;DHT22;60852;52.190;4.422;2023-08-17T05:16:13;16.81;82.83
68943;DHT22;60852;52.190;4.422;2023-08-17T05:18:38;16.88;82.26
68943;DHT22;60852;52.190;4.422;2023-08-17T05:21:04;16.93;82.35
68943;DHT22;60852;52.190;4.422;2023-08-17T05:23:29;17.03;81.86
68943;DHT22;60852;52.190;4.422;2023-08-17T05:25:55;17.35;80.86
68943;DHT22;60852;52.190;4.422;2023-08-17T05:28:20;17.86;79.52
68943;DHT22;60852;52.190;4.422;2023-08-17T05:30:46;17.76;79.04
68943;DHT22;60852;52.190;4.422;2023-08-17T05:33:12;17.52;79.92
68943;DHT22;60852;52.190;4.422;2023-08-17T05:35:37;17.38;80.59
68943;DHT22;60852;52.190;4.422;2023-08-17T05:38:03;17.34;80.90
68943;DHT22;60852;52.190;4.422;2023-08-17T05:40:30;17.22;81.35
68943;DHT22;60852;52.190;4.422;2023-08-17T05:42:56;17.12;81.82
68943;DHT22;60852;52.190;4.422;2023-08-17T05:45:21;17.14;82.09
68943;DHT22;60852;52.190;4.422;2023-08-17T05:47:46;17.15;82.06
68943;DHT22;60852;52.190;4.422;2023-08-17T05:50:12;17.14;82.15
68943;DHT22;60852;52.190;4.422;2023-08-17T05:52:38;17.20;82.24
68943;DHT22;60852;52.190;4.422;2023-08-17T05:55:03;17.20;82.10
68943;DHT22;60852;52.190;4.422;2023-08-17T05:57:29;17.25;82.13
68943;DHT22;60852;52.190;4.422;2023-08-17T05:59:54;17.24;82.10
68943;DHT22;60852;52.190;4.422;2023-08-17T06:02:20;17.24;81.91
68943;DHT22;60852;52.190;4.422;2023-08-17T06:04:47;17.22;82.14
68943;DHT22;60852;52.190;4.422;2023-08-17T06:07:13;17.20;82.26
68943;DHT22;60852;52.190;4.422;2023-08-17T06:09:38;17.25;82.06
68943;DHT22;60852;52.190;4.422;2023-08-17T06:12:04;17.28;82.20
68943;DHT22;60852;52.190;4.422;2023-08-17T06:14:29;17.32;82.04
68943;DHT22;60852;52.190;4.422;2023-08-17T06:16:55;17.34;82.01
68943;DHT22;60852;52.190;4.422;2023-08-17T06:19:20;17.42;81.76
68943;DHT22;60852;52.190;4.422;2023-08-17T06:21:46;17.41;81.63
68943;DHT22;60852;52.190;4.422;2023-08-17T06:24:11;17.39;81.49
68943;DHT22;60852;52.190;4.422;2023-08-17T06:26:37;17.32;81.60
68943;DHT22;60852;52.190;4.422;2023-08-17T06:29:02;17.36;81.72
68943;DHT22;60852;52.190;4.422;2023-08-17T06:31:28;17.42;81.61
68943;DHT22;60852;52.190;4.422;2023-08-17T06:33:54;17.46;81.56
68943;DHT22;60852;52.190;4.422;2023-08-17T06:36:20;17.46;81.33
68943;DHT22;60852;52.190;4.422;2023-08-17T06:38:45;17.48;81.11
68943;DHT22;60852;52.190;4.422;2023-08-17T06:41:11;17.49;81.30
68943;DHT22;60852;52.190;4.422;2023-08-17T06:43:36;17.59;81.17
68943;DHT22;60852;52.190;4.422;2023-08-17T06:46:02;17.66;81.05
68943;DHT22;60852;52.190;4.422;2023-08-17T06:48:28;17.71;81.00
68943;DHT22;60852;52.190;4.422;2023-08-17T06:50:54;17.76;80.53
68943;DHT22;60852;52.190;4.422;2023-08-17T06:53:19;17.83;80.49
68943;DHT22;60852;52.190;4.422;2023-08-17T06:55:45;17.89;80.08
68943;DHT22;60852;52.190;4.422;2023-08-17T06:58:10;17.99;79.73
68943;DHT22;60852;52.190;4.422;2023-08-17T07:00:36;17.93;79.74
68943;DHT22;60852;52.190;4.422;2023-08-17T07:03:04;17.85;79.94
68943;DHT22;60852;52.190;4.422;2023-08-17T07:05:29;17.87;80.29
68943;DHT22;60852;52.190;4.422;2023-08-17T07:07:55;17.92;79.95
68943;DHT22;60852;52.190;4.422;2023-08-17T07:10:20;17.92;79.98
68943;DHT22;60852;52.190;4.422;2023-08-17T07:12:46;17.94;80.15
68943;DHT22;60852;52.190;4.422;2023-08-17T07:15:12;18.03;79.76
68943;DHT22;60852;52.190;4.422;2023-08-17T07:17:37;18.04;79.74
68943;DHT22;60852;52.190;4.422;2023-08-17T07:20:04;18.11;79.91
68943;DHT22;60852;52.190;4.422;2023-08-17T07:22:30;18.26;79.44
68943;DHT22;60852;52.190;4.422;2023-08-17T07:24:55;18.47;78.84
68943;DHT22;60852;52.190;4.422;2023-08-17T07:27:21;18.64;78.24
68943;DHT22;60852;52.190;4.422;2023-08-17T07:29:46;18.78;77.95
68943;DHT22;60852;52.190;4.422;2023-08-17T07:32:12;18.85;77.39
68943;DHT22;60852;52.190;4.422;2023-08-17T07:34:37;18.92;76.99
68943;DHT22;60852;52.190;4.422;2023-08-17T07:37:06;19.05;76.80
68943;DHT22;60852;52.190;4.422;2023-08-17T07:39:32;19.16;76.14
68943;DHT22;60852;52.190;4.422;2023-08-17T07:41:58;19.13;75.74
68943;DHT22;60852;52.190;4.422;2023-08-17T07:44:23;19.00;75.36
68943;DHT22;60852;52.190;4.422;2023-08-17T07:46:48;19.03;74.90
68943;DHT22;60852;52.190;4.422;2023-08-17T07:49:14;18.98;75.23
68943;DHT22;60852;52.190;4.422;2023-08-17T07:51:39;18.98;74.57
68943;DHT22;60852;52.190;4.422;2023-08-17T07:54:05;18.99;74.68
68943;DHT22;60852;52.190;4.422;2023-08-17T07:56:31;18.94;74.58
68943;DHT22;60852;52.190;4.422;2023-08-17T07:58:57;19.12;74.62
68943;DHT22;60852;52.190;4.422;2023-08-17T08:01:22;19.34;75.01
68943;DHT22;60852;52.190;4.422;2023-08-17T08:03:49;19.56;74.19
68943;DHT22;60852;52.190;4.422;2023-08-17T08:06:15;19.60;73.39
68943;DHT22;60852;52.190;4.422;2023-08-17T08:08:40;19.51;73.10
68943;DHT22;60852;52.190;4.422;2023-08-17T08:11:06;19.41;73.60
68943;DHT22;60852;52.190;4.422;2023-08-17T08:13:32;19.41;72.90
68943;DHT22;60852;52.190;4.422;2023-08-17T08:15:58;19.40;72.63
68943;DHT22;60852;52.190;4.422;2023-08-17T08:18:23;19.24;73.57
68943;DHT22;60852;52.190;4.422;2023-08-17T08:20:49;19.46;73.55
68943;DHT22;60852;52.190;4.422;2023-08-17T08:23:15;19.64;73.02
68943;DHT22;60852;52.190;4.422;2023-08-17T08:25:40;19.71;73.30
68943;DHT22;60852;52.190;4.422;2023-08-17T08:28:06;19.74;72.79
68943;DHT22;60852;52.190;4.422;2023-08-17T08:30:32;19.84;73.17
68943;DHT22;60852;52.190;4.422;2023-08-17T08:32:57;19.87;73.43
68943;DHT22;60852;52.190;4.422;2023-08-17T08:35:24;20.12;72.99
68943;DHT22;60852;52.190;4.422;2023-08-17T08:37:50;20.09;72.33
68943;DHT22;60852;52.190;4.422;2023-08-17T08:40:17;19.94;72.22
68943;DHT22;60852;52.190;4.422;2023-08-17T08:42:44;19.98;72.69
68943;DHT22;60852;52.190;4.422;2023-08-17T08:45:10;20.11;72.68
68943;DHT22;60852;52.190;4.422;2023-08-17T08:47:41;20.18;71.40
68943;DHT22;60852;52.190;4.422;2023-08-17T08:50:16;20.11;72.22
68943;DHT22;60852;52.190;4.422;2023-08-17T08:52:53;20.15;72.16
68943;DHT22;60852;52.190;4.422;2023-08-17T08:55:23;20.08;71.79
68943;DHT22;60852;52.190;4.422;2023-08-17T08:57:49;20.12;71.24
68943;DHT22;60852;52.190;4.422;2023-08-17T09:00:16;20.26;71.53
68943;DHT22;60852;52.190;4.422;2023-08-17T09:02:42;20.42;70.97
68943;DHT22;60852;52.190;4.422;2023-08-17T09:05:10;20.47;70.82
68943;DHT22;60852;52.190;4.422;2023-08-17T09:07:37;20.52;70.52
68943;DHT22;60852;52.190;4.422;2023-08-17T09:10:03;20.43;70.67
68943;DHT22;60852;52.190;4.422;2023-08-17T09:12:30;20.33;70.29
68943;DHT22;60852;52.190;4.422;2023-08-17T09:14:55;20.30;70.15
68943;DHT22;60852;52.190;4.422;2023-08-17T09:17:28;20.35;70.90
68943;DHT22;60852;52.190;4.422;2023-08-17T09:19:54;20.33;70.73
68943;DHT22;60852;52.190;4.422;2023-08-17T09:22:23;20.49;71.20
68943;DHT22;60852;52.190;4.422;2023-08-17T09:24:49;20.67;69.46
68943;DHT22;60852;52.190;4.422;2023-08-17T09:27:16;20.55;68.31
68943;DHT22;60852;52.190;4.422;2023-08-17T09:29:45;20.43;69.40
68943;DHT22;60852;52.190;4.422;2023-08-17T09:32:14;20.59;69.59
68943;DHT22;60852;52.190;4.422;2023-08-17T09:34:44;20.66;69.50
68943;DHT22;60852;52.190;4.422;2023-08-17T09:37:12;20.88;68.39
68943;DHT22;60852;52.190;4.422;2023-08-17T09:39:38;20.81;68.54
68943;DHT22;60852;52.190;4.422;2023-08-17T09:42:04;20.87;68.42
68943;DHT22;60852;52.190;4.422;2023-08-17T09:44:33;21.04;68.84
68943;DHT22;60852;52.190;4.422;2023-08-17T09:46:58;21.06;68.89
68943;DHT22;60852;52.190;4.422;2023-08-17T09:49:24;21.11;68.48
68943;DHT22;60852;52.190;4.422;2023-08-17T09:51:50;21.04;68.80
68943;DHT22;60852;52.190;4.422;2023-08-17T09:54:22;20.97;69.01
68943;DHT22;60852;52.190;4.422;2023-08-17T09:56:53;21.12;68.41
68943;DHT22;60852;52.190;4.422;2023-08-17T09:59:19;21.12;67.73
68943;DHT22;60852;52.190;4.422;2023-08-17T10:01:50;20.97;67.99
68943;DHT22;60852;52.190;4.422;2023-08-17T10:04:20;20.93;68.96
68943;DHT22;60852;52.190;4.422;2023-08-17T10:06:50;21.14;68.50
68943;DHT22;60852;52.190;4.422;2023-08-17T10:09:24;21.34;67.48
68943;DHT22;60852;52.190;4.422;2023-08-17T10:11:52;21.75;66.81
68943;DHT22;60852;52.190;4.422;2023-08-17T10:14:28;21.97;66.54
68943;DHT22;60852;52.190;4.422;2023-08-17T10:17:07;21.88;66.18
68943;DHT22;60852;52.190;4.422;2023-08-17T10:19:46;22.04;66.19
68943;DHT22;60852;52.190;4.422;2023-08-17T10:22:31;22.48;63.87
68943;DHT22;60852;52.190;4.422;2023-08-17T10:25:00;22.18;64.54
68943;DHT22;60852;52.190;4.422;2023-08-17T10:27:26;22.36;64.10
68943;DHT22;60852;52.190;4.422;2023-08-17T10:29:52;22.43;64.09
68943;DHT22;60852;52.190;4.422;2023-08-17T10:32:22;22.30;64.09
68943;DHT22;60852;52.190;4.422;2023-08-17T10:34:50;22.24;63.77
68943;DHT22;60852;52.190;4.422;2023-08-17T10:37:18;22.02;64.67
68943;DHT22;60852;52.190;4.422;2023-08-17T10:39:45;22.07;65.39
68943;DHT22;60852;52.190;4.422;2023-08-17T10:42:13;22.16;64.18
68943;DHT22;60852;52.190;4.422;2023-08-17T10:44:45;22.33;63.90
68943;DHT22;60852;52.190;4.422;2023-08-17T10:47:31;22.12;64.13
68943;DHT22;60852;52.190;4.422;2023-08-17T10:50:06;21.90;64.64
68943;DHT22;60852;52.190;4.422;2023-08-17T10:52:36;22.03;64.42
68943;DHT22;60852;52.190;4.422;2023-08-17T10:55:07;22.34;64.26
68943;DHT22;60852;52.190;4.422;2023-08-17T10:57:35;22.50;63.08
68943;DHT22;60852;52.190;4.422;2023-08-17T11:02:40;22.43;63.26
68943;DHT22;60852;52.190;4.422;2023-08-17T11:05:06;22.32;64.37
68943;DHT22;60852;52.190;4.422;2023-08-17T11:07:44;22.57;63.07
68943;DHT22;60852;52.190;4.422;2023-08-17T11:10:28;22.16;64.32
68943;DHT22;60852;52.190;4.422;2023-08-17T11:12:55;22.20;64.80
68943;DHT22;60852;52.190;4.422;2023-08-17T11:15:39;22.32;64.42
68943;DHT22;60852;52.190;4.422;2023-08-17T11:18:08;22.40;64.15
68943;DHT22;60852;52.190;4.422;2023-08-17T11:20:34;22.32;64.01
68943;DHT22;60852;52.190;4.422;2023-08-17T11:23:00;22.30;63.96
68943;DHT22;60852;52.190;4.422;2023-08-17T11:25:27;22.29;63.76
68943;DHT22;60852;52.190;4.422;2023-08-17T11:27:54;22.23;64.07
68943;DHT22;60852;52.190;4.422;2023-08-17T11:30:22;22.50;64.87
68943;DHT22;60852;52.190;4.422;2023-08-17T11:32:50;22.69;64.03
68943;DHT22;60852;52.190;4.422;2023-08-17T11:35:16;22.67;63.51
68943;DHT22;60852;52.190;4.422;2023-08-17T11:37:42;22.37;64.21
68943;DHT22;60852;52.190;4.422;2023-08-17T11:40:10;22.23;65.06
68943;DHT22;60852;52.190;4.422;2023-08-17T11:42:37;22.45;64.61
68943;DHT22;60852;52.190;4.422;2023-08-17T11:45:03;22.62;64.16
68943;DHT22;60852;52.190;4.422;2023-08-17T11:47:29;22.72;63.46
68943;DHT22;60852;52.190;4.422;2023-08-17T11:50:05;22.65;64.26
68943;DHT22;60852;52.190;4.422;2023-08-17T11:52:32;22.74;63.80
68943;DHT22;60852;52.190;4.422;2023-08-17T11:55:01;22.84;63.21
68943;DHT22;60852;52.190;4.422;2023-08-17T11:57:26;22.62;63.99
68943;DHT22;60852;52.190;4.422;2023-08-17T11:59:54;22.65;64.03
68943;DHT22;60852;52.190;4.422;2023-08-17T12:02:24;22.53;64.12
68943;DHT22;60852;52.190;4.422;2023-08-17T12:04:50;22.53;64.41
68943;DHT22;60852;52.190;4.422;2023-08-17T12:07:17;22.82;63.61
68943;DHT22;60852;52.190;4.422;2023-08-17T12:09:44;23.01;63.55
68943;DHT22;60852;52.190;4.422;2023-08-17T12:12:10;22.95;63.37
68943;DHT22;60852;52.190;4.422;2023-08-17T12:14:36;22.79;63.21
68943;DHT22;60852;52.190;4.422;2023-08-17T12:17:02;22.76;63.64
68943;DHT22;60852;52.190;4.422;2023-08-17T12:19:29;22.78;63.82
68943;DHT22;60852;52.190;4.422;2023-08-17T12:21:56;22.91;63.93
68943;DHT22;60852;52.190;4.422;2023-08-17T12:24:26;23.02;63.70
68943;DHT22;60852;52.190;4.422;2023-08-17T12:26:51;23.24;63.05
68943;DHT22;60852;52.190;4.422;2023-08-17T12:29:17;23.23;62.90
68943;DHT22;60852;52.190;4.422;2023-08-17T12:31:42;23.01;62.90
68943;DHT22;60852;52.190;4.422;2023-08-17T12:34:08;22.85;64.45
68943;DHT22;60852;52.190;4.422;2023-08-17T12:36:34;22.81;64.04
68943;DHT22;60852;52.190;4.422;2023-08-17T12:39:00;22.81;64.23
68943;DHT22;60852;52.190;4.422;2023-08-17T12:41:26;23.05;64.04
68943;DHT22;60852;52.190;4.422;2023-08-17T12:43:52;23.13;63.92
68943;DHT22;60852;52.190;4.422;2023-08-17T12:46:19;23.06;64.06
68943;DHT22;60852;52.190;4.422;2023-08-17T12:48:45;23.30;63.24
68943;DHT22;60852;52.190;4.422;2023-08-17T12:51:10;23.13;63.16
68943;DHT22;60852;52.190;4.422;2023-08-17T12:53:36;23.11;63.82
68943;DHT22;60852;52.190;4.422;2023-08-17T12:56:02;23.08;64.16
68943;DHT22;60852;52.190;4.422;2023-08-17T12:58:27;23.09;63.95
68943;DHT22;60852;52.190;4.422;2023-08-17T13:00:53;23.08;63.79
68943;DHT22;60852;52.190;4.422;2023-08-17T13:03:20;23.11;64.00
68943;DHT22;60852;52.190;4.422;2023-08-17T13:05:45;22.92;64.13
68943;DHT22;60852;52.190;4.422;2023-08-17T13:08:11;22.81;64.64
68943;DHT22;60852;52.190;4.422;2023-08-17T13:10:37;22.87;64.88
68943;DHT22;60852;52.190;4.422;2023-08-17T13:13:02;22.90;64.26
68943;DHT22;60852;52.190;4.422;2023-08-17T13:15:29;22.85;64.99
68943;DHT22;60852;52.190;4.422;2023-08-17T13:17:54;22.79;64.97
68943;DHT22;60852;52.190;4.422;2023-08-17T13:20:20;22.71;64.68
68943;DHT22;60852;52.190;4.422;2023-08-17T13:22:46;22.55;65.22
68943;DHT22;60852;52.190;4.422;2023-08-17T13:25:12;22.72;64.55
68943;DHT22;60852;52.190;4.422;2023-08-17T13:27:37;22.78;64.75
68943;DHT22;60852;52.190;4.422;2023-08-17T13:30:03;22.95;64.66
68943;DHT22;60852;52.190;4.422;2023-08-17T13:32:29;23.11;64.38
68943;DHT22;60852;52.190;4.422;2023-08-17T13:34:54;23.01;63.95
68943;DHT22;60852;52.190;4.422;2023-08-17T13:37:20;22.85;64.61
68943;DHT22;60852;52.190;4.422;2023-08-17T13:39:46;22.67;64.87
68943;DHT22;60852;52.190;4.422;2023-08-17T13:42:12;22.87;64.91
68943;DHT22;60852;52.190;4.422;2023-08-17T13:44:38;23.18;63.74
68943;DHT22;60852;52.190;4.422;2023-08-17T13:47:03;23.45;63.08
68943;DHT22;60852;52.190;4.422;2023-08-17T13:49:29;23.45;62.50
68943;DHT22;60852;52.190;4.422;2023-08-17T13:51:54;23.36;62.84
68943;DHT22;60852;52.190;4.422;2023-08-17T13:54:22;23.34;62.95
68943;DHT22;60852;52.190;4.422;2023-08-17T13:56:48;23.08;63.61
68943;DHT22;60852;52.190;4.422;2023-08-17T13:59:14;22.81;64.41
68943;DHT22;60852;52.190;4.422;2023-08-17T14:01:39;22.68;64.71
68943;DHT22;60852;52.190;4.422;2023-08-17T14:04:05;22.67;64.63
68943;DHT22;60852;52.190;4.422;2023-08-17T14:06:36;22.60;64.95
68943;DHT22;60852;52.190;4.422;2023-08-17T14:09:02;22.62;65.49
68943;DHT22;60852;52.190;4.422;2023-08-17T14:11:28;22.62;65.41
68943;DHT22;60852;52.190;4.422;2023-08-17T14:13:53;22.57;65.31
68943;DHT22;60852;52.190;4.422;2023-08-17T14:16:19;22.54;65.45
68943;DHT22;60852;52.190;4.422;2023-08-17T14:18:44;22.37;65.66
68943;DHT22;60852;52.190;4.422;2023-08-17T14:21:10;22.36;66.26
68943;DHT22;60852;52.190;4.422;2023-08-17T14:23:35;22.57;66.14
68943;DHT22;60852;52.190;4.422;2023-08-17T14:26:01;22.62;65.29
68943;DHT22;60852;52.190;4.422;2023-08-17T14:28:26;22.58;65.63
68943;DHT22;60852;52.190;4.422;2023-08-17T14:30:52;22.62;65.88
68943;DHT22;60852;52.190;4.422;2023-08-17T14:33:17;22.58;65.41
68943;DHT22;60852;52.190;4.422;2023-08-17T14:35:43;22.45;66.03
68943;DHT22;60852;52.190;4.422;2023-08-17T14:38:08;22.34;66.31
68943;DHT22;60852;52.190;4.422;2023-08-17T14:40:41;22.30;66.12
68943;DHT22;60852;52.190;4.422;2023-08-17T14:43:06;22.18;66.33
68943;DHT22;60852;52.190;4.422;2023-08-17T14:45:32;22.03;67.25
68943;DHT22;60852;52.190;4.422;2023-08-17T14:47:57;22.20;67.13
68943;DHT22;60852;52.190;4.422;2023-08-17T14:50:24;22.21;66.29
68943;DHT22;60852;52.190;4.422;2023-08-17T14:52:49;22.00;67.22
68943;DHT22;60852;52.190;4.422;2023-08-17T14:55:15;22.04;67.42
68943;DHT22;60852;52.190;4.422;2023-08-17T14:57:40;22.16;67.15
68943;DHT22;60852;52.190;4.422;2023-08-17T15:00:08;22.00;67.37
68943;DHT22;60852;52.190;4.422;2023-08-17T15:02:33;21.96;67.38
68943;DHT22;60852;52.190;4.422;2023-08-17T15:04:59;21.88;67.55
68943;DHT22;60852;52.190;4.422;2023-08-17T15:07:25;21.73;67.52
68943;DHT22;60852;52.190;4.422;2023-08-17T15:09:50;21.71;67.63
68943;DHT22;60852;52.190;4.422;2023-08-17T15:12:16;21.72;67.78
68943;DHT22;60852;52.190;4.422;2023-08-17T15:14:41;21.78;67.66
68943;DHT22;60852;52.190;4.422;2023-08-17T15:17:07;21.71;67.97
68943;DHT22;60852;52.190;4.422;2023-08-17T15:19:34;21.72;68.01
68943;DHT22;60852;52.190;4.422;2023-08-17T15:22:00;21.75;67.75
68943;DHT22;60852;52.190;4.422;2023-08-17T15:24:25;21.73;67.99
68943;DHT22;60852;52.190;4.422;2023-08-17T15:26:50;21.92;67.61
68943;DHT22;60852;52.190;4.422;2023-08-17T15:29:16;22.07;67.11